createdAt,value
2018-12-19T00:00:46.231Z,2.06
2018-12-19T00:03:13.637Z,1.98
2018-12-19T00:05:41.048Z,1.97
2018-12-19T00:08:08.512Z,1.95
2018-12-19T00:10:35.919Z,1.98
2018-12-19T00:13:03.410Z,1.84
2018-12-19T00:15:30.812Z,1.88
2018-12-19T00:17:58.315Z,1.89
2018-12-19T00:20:25.707Z,1.79
2018-12-19T00:22:53.090Z,1.74
2018-12-19T00:25:20.503Z,1.74
2018-12-19T00:27:48.894Z,1.78
2018-12-19T00:30:16.270Z,1.69
2018-12-19T00:32:43.742Z,1.68
2018-12-19T00:35:11.176Z,1.60
2018-12-19T00:37:38.562Z,1.65
2018-12-19T00:40:05.948Z,1.63
2018-12-19T00:42:33.350Z,1.69
2018-12-19T00:45:00.760Z,1.70
2018-12-19T00:47:28.154Z,1.68
2018-12-19T00:49:55.577Z,1.65
2018-12-19T00:52:23.056Z,1.69
2018-12-19T00:54:50.488Z,1.62
2018-12-19T00:57:17.894Z,1.57
2018-12-19T00:59:45.274Z,1.62
2018-12-19T01:02:12.664Z,1.63
2018-12-19T01:04:40.060Z,1.53
2018-12-19T01:07:07.445Z,1.48
2018-12-19T01:09:34.856Z,1.53
2018-12-19T01:12:02.265Z,1.57
2018-12-19T01:14:29.749Z,1.50
2018-12-19T01:16:57.144Z,1.49
2018-12-19T01:19:24.552Z,1.51
2018-12-19T01:21:51.942Z,1.44
2018-12-19T01:24:19.357Z,1.49
2018-12-19T01:26:46.790Z,1.52
2018-12-19T01:29:14.187Z,1.45
2018-12-19T01:31:41.581Z,1.48
2018-12-19T01:34:09.005Z,1.49
2018-12-19T01:36:36.398Z,1.44
2018-12-19T01:39:05.728Z,1.44
2018-12-19T01:41:33.132Z,1.50
2018-12-19T01:44:00.518Z,1.42
2018-12-19T01:46:27.902Z,1.44
2018-12-19T01:48:55.298Z,1.42
2018-12-19T01:51:22.802Z,1.42
2018-12-19T01:53:50.190Z,1.45
2018-12-19T01:56:17.587Z,1.49
2018-12-19T01:58:44.993Z,1.48
2018-12-19T02:01:12.400Z,1.49
2018-12-19T02:03:39.805Z,1.47
2018-12-19T02:06:07.194Z,1.40
2018-12-19T02:08:34.672Z,1.41
2018-12-19T02:11:02.079Z,1.49
2018-12-19T02:13:29.462Z,1.48
2018-12-19T02:15:56.858Z,1.51
2018-12-19T02:18:24.278Z,1.53
2018-12-19T02:20:51.750Z,1.50
2018-12-19T02:23:19.161Z,1.47
2018-12-19T02:25:46.553Z,1.46
2018-12-19T02:28:13.954Z,1.46
2018-12-19T02:30:41.350Z,1.48
2018-12-19T02:33:08.747Z,1.36
2018-12-19T02:35:36.150Z,1.45
2018-12-19T02:38:03.560Z,1.50
2018-12-19T02:40:30.950Z,1.49
2018-12-19T02:42:58.339Z,1.48
2018-12-19T02:45:25.738Z,1.46
2018-12-19T02:47:53.141Z,1.46
2018-12-19T02:50:20.625Z,1.49
2018-12-19T02:52:48.011Z,1.44
2018-12-19T02:55:15.393Z,1.42
2018-12-19T02:57:42.795Z,1.41
2018-12-19T03:00:10.269Z,1.39
2018-12-19T03:02:37.650Z,1.44
2018-12-19T03:05:05.143Z,1.38
2018-12-19T03:07:32.530Z,1.42
2018-12-19T03:09:59.989Z,1.39
2018-12-19T03:12:27.394Z,1.36
2018-12-19T03:14:54.817Z,1.42
2018-12-19T03:17:22.298Z,1.31
2018-12-19T03:19:49.686Z,1.35
2018-12-19T03:22:17.175Z,1.37
2018-12-19T03:24:44.658Z,1.33
2018-12-19T03:27:12.051Z,1.29
2018-12-19T03:29:39.446Z,1.31
2018-12-19T03:32:06.863Z,1.29
2018-12-19T03:34:34.324Z,1.31
2018-12-19T03:37:01.723Z,1.36
2018-12-19T03:39:29.114Z,1.31
2018-12-19T03:41:56.575Z,1.33
2018-12-19T03:44:23.981Z,1.34
2018-12-19T03:46:51.371Z,1.33
2018-12-19T03:49:18.877Z,1.37
2018-12-19T03:51:46.454Z,1.35
2018-12-19T03:54:13.939Z,1.31
2018-12-19T03:56:42.127Z,1.28
2018-12-19T03:59:09.609Z,1.25
2018-12-19T04:01:36.989Z,1.31
2018-12-19T04:04:04.383Z,1.28
2018-12-19T04:06:31.781Z,1.26
2018-12-19T04:08:59.255Z,1.30
2018-12-19T04:11:26.638Z,1.24
2018-12-19T04:13:54.053Z,1.23
2018-12-19T04:16:21.459Z,1.23
2018-12-19T04:18:48.897Z,1.29
2018-12-19T04:21:16.270Z,1.26
2018-12-19T04:23:43.688Z,1.25
2018-12-19T04:26:11.144Z,1.25
2018-12-19T04:28:38.590Z,1.27
2018-12-19T04:31:05.974Z,1.29
2018-12-19T04:33:33.385Z,1.25
2018-12-19T04:36:00.909Z,1.29
2018-12-19T04:38:28.417Z,1.35
2018-12-19T04:40:55.810Z,1.26
2018-12-19T04:43:23.188Z,1.30
2018-12-19T04:45:50.649Z,1.21
2018-12-19T04:48:18.048Z,1.24
2018-12-19T04:50:45.434Z,1.27
2018-12-19T04:53:14.557Z,1.24
2018-12-19T04:55:42.214Z,1.27
2018-12-19T04:58:09.663Z,1.20
2018-12-19T05:00:37.163Z,1.23
2018-12-19T05:03:04.604Z,1.21
2018-12-19T05:05:32.006Z,1.23
2018-12-19T05:07:59.533Z,1.20
2018-12-19T05:10:27.014Z,1.25
2018-12-19T05:12:54.492Z,1.26
2018-12-19T05:15:21.970Z,1.29
2018-12-19T05:17:49.379Z,1.26
2018-12-19T05:20:16.786Z,1.28
2018-12-19T05:22:44.190Z,1.24
2018-12-19T05:25:13.787Z,1.25
2018-12-19T05:27:41.177Z,1.30
2018-12-19T05:30:09.177Z,1.27
2018-12-19T05:32:36.546Z,1.34
2018-12-19T05:35:05.752Z,1.35
2018-12-19T05:37:33.167Z,1.33
2018-12-19T05:40:00.557Z,1.36
2018-12-19T05:42:27.939Z,1.37
2018-12-19T05:44:55.341Z,1.42
2018-12-19T05:47:23.278Z,1.51
2018-12-19T05:49:51.200Z,1.39
2018-12-19T05:52:20.187Z,1.35
2018-12-19T05:54:47.707Z,1.39
2018-12-19T05:57:15.100Z,1.45
2018-12-19T05:59:42.494Z,1.41
2018-12-19T06:02:09.978Z,1.44
2018-12-19T06:04:37.468Z,1.42
2018-12-19T06:07:04.843Z,1.44
2018-12-19T06:09:32.232Z,1.47
2018-12-19T06:11:59.618Z,1.50
2018-12-19T06:14:27.033Z,1.49
2018-12-19T06:16:54.592Z,1.49
2018-12-19T06:19:22.023Z,1.50
2018-12-19T06:21:49.407Z,1.47
2018-12-19T06:24:16.790Z,1.53
2018-12-19T06:26:44.178Z,1.47
2018-12-19T06:29:11.613Z,1.56
2018-12-19T06:31:38.995Z,1.53
2018-12-19T06:34:06.378Z,1.54
2018-12-19T06:36:33.766Z,1.60
2018-12-19T06:39:01.243Z,1.56
2018-12-19T06:41:28.726Z,1.63
2018-12-19T06:43:56.125Z,1.63
2018-12-19T06:46:23.554Z,1.59
2018-12-19T06:48:50.948Z,1.69
2018-12-19T06:51:19.058Z,1.62
2018-12-19T06:53:46.854Z,1.55
2018-12-19T06:56:14.252Z,1.63
2018-12-19T06:58:41.713Z,1.56
2018-12-19T07:01:09.130Z,1.54
2018-12-19T07:03:36.526Z,1.59
2018-12-19T07:06:03.929Z,1.52
2018-12-19T07:08:31.331Z,1.54
2018-12-19T07:10:58.799Z,1.52
2018-12-19T07:13:26.193Z,1.58
2018-12-19T07:15:53.622Z,1.49
2018-12-19T07:18:21.026Z,1.53
2018-12-19T07:20:48.442Z,1.54
2018-12-19T07:23:15.831Z,1.57
2018-12-19T07:25:43.240Z,1.62
2018-12-19T07:28:10.637Z,1.60
2018-12-19T07:30:38.027Z,1.66
2018-12-19T07:33:05.436Z,1.67
2018-12-19T07:35:32.837Z,1.69
2018-12-19T07:38:00.211Z,1.71
2018-12-19T07:40:27.601Z,1.73
2018-12-19T07:42:54.982Z,1.71
2018-12-19T07:45:22.372Z,1.72
2018-12-19T07:47:49.777Z,1.72
2018-12-19T07:50:17.175Z,1.64
2018-12-19T07:52:44.654Z,1.65
2018-12-19T07:55:12.045Z,1.73
2018-12-19T07:57:39.426Z,1.63
2018-12-19T08:00:07.668Z,1.65
2018-12-19T08:02:35.063Z,1.50
2018-12-19T08:05:02.453Z,1.53
2018-12-19T08:07:29.852Z,1.62
2018-12-19T08:09:57.266Z,1.64
2018-12-19T08:12:24.649Z,1.61
2018-12-19T08:14:53.978Z,1.61
2018-12-19T08:17:21.381Z,1.67
2018-12-19T08:19:48.781Z,1.59
2018-12-19T08:22:16.201Z,1.57
2018-12-19T08:24:43.591Z,1.58
2018-12-19T08:27:10.993Z,1.54
2018-12-19T08:29:38.512Z,1.60
2018-12-19T08:32:05.902Z,1.60
2018-12-19T08:34:33.299Z,1.58
2018-12-19T08:37:00.840Z,1.60
2018-12-19T08:39:28.823Z,1.58
2018-12-19T08:41:56.210Z,1.60
2018-12-19T08:44:24.430Z,1.69
2018-12-19T08:46:52.120Z,1.78
2018-12-19T08:49:19.498Z,1.71
2018-12-19T08:51:46.893Z,1.79
2018-12-19T08:54:14.298Z,1.76
2018-12-19T08:56:41.690Z,1.81
2018-12-19T08:59:09.086Z,1.81
2018-12-19T09:01:36.483Z,1.90
2018-12-19T09:04:03.881Z,1.96
2018-12-19T09:06:31.267Z,2.01
2018-12-19T09:08:58.690Z,1.99
2018-12-19T09:11:26.078Z,2.08
2018-12-19T09:13:53.469Z,2.07
2018-12-19T09:16:20.864Z,2.00
2018-12-19T09:18:48.250Z,2.05
2018-12-19T09:21:15.646Z,2.05
2018-12-19T09:23:43.038Z,2.13
2018-12-19T09:26:10.460Z,2.06
2018-12-19T09:28:37.860Z,2.18
2018-12-19T09:31:05.248Z,2.12
2018-12-19T09:33:32.634Z,2.14
2018-12-19T09:36:00.048Z,2.18
2018-12-19T09:38:27.433Z,2.16
2018-12-19T09:40:54.815Z,2.26
2018-12-19T09:43:22.218Z,2.31
2018-12-19T09:45:49.594Z,2.29
2018-12-19T09:48:16.977Z,2.29
2018-12-19T09:50:44.375Z,2.20
2018-12-19T09:53:11.810Z,2.18
2018-12-19T09:55:39.209Z,2.26
2018-12-19T09:58:06.603Z,2.30
2018-12-19T10:00:34.011Z,2.18
2018-12-19T10:03:01.395Z,2.24
2018-12-19T10:05:29.494Z,2.23
2018-12-19T10:07:56.884Z,2.27
2018-12-19T10:10:24.273Z,2.25
2018-12-19T10:12:51.649Z,2.22
2018-12-19T10:15:19.040Z,2.31
2018-12-19T10:17:46.426Z,2.35
2018-12-19T10:20:13.816Z,2.29
2018-12-19T10:22:41.202Z,2.31
2018-12-19T10:25:12.685Z,2.29
2018-12-19T10:27:40.181Z,2.33
2018-12-19T10:30:10.576Z,2.39
2018-12-19T10:32:39.269Z,2.28
2018-12-19T10:35:08.753Z,2.30
2018-12-19T10:37:36.243Z,2.31
2018-12-19T10:40:05.851Z,2.34
2018-12-19T10:42:33.242Z,2.47
2018-12-19T10:45:00.630Z,2.41
2018-12-19T10:47:28.027Z,2.46
2018-12-19T10:49:55.499Z,2.43
2018-12-19T10:52:22.883Z,2.41
2018-12-19T10:54:50.283Z,2.37
2018-12-19T10:57:17.676Z,2.41
2018-12-19T10:59:45.058Z,2.45
2018-12-19T11:02:12.462Z,2.48
2018-12-19T11:04:39.841Z,2.41
2018-12-19T11:07:07.235Z,2.41
2018-12-19T11:09:34.716Z,2.46
2018-12-19T11:12:02.110Z,2.44
2018-12-19T11:14:29.625Z,2.51
2018-12-19T11:16:57.322Z,2.53
2018-12-19T11:19:24.703Z,2.53
2018-12-19T11:21:52.107Z,2.54
2018-12-19T11:24:19.499Z,2.54
2018-12-19T11:26:47.128Z,2.57
2018-12-19T11:29:14.522Z,2.62
2018-12-19T11:31:42.122Z,2.64
2018-12-19T11:34:09.533Z,2.59
2018-12-19T11:36:36.948Z,2.65
2018-12-19T11:39:06.779Z,2.81
2018-12-19T11:41:38.970Z,2.86
2018-12-19T11:44:03.950Z,2.85
2018-12-19T11:46:31.346Z,2.75
2018-12-19T11:48:58.764Z,2.78
2018-12-19T11:51:26.142Z,2.77
2018-12-19T11:53:53.616Z,2.83
2018-12-19T11:56:21.008Z,2.84
2018-12-19T11:58:48.391Z,2.93
2018-12-19T12:01:15.778Z,2.92
2018-12-19T12:03:43.172Z,2.87
2018-12-19T12:06:10.655Z,2.92
2018-12-19T12:08:38.050Z,2.94
2018-12-19T12:11:05.433Z,2.91
2018-12-19T12:13:32.830Z,2.94
2018-12-19T12:16:00.317Z,2.89
2018-12-19T12:18:27.694Z,3.00
2018-12-19T12:20:55.092Z,3.01
2018-12-19T12:23:22.478Z,3.01
2018-12-19T12:25:49.877Z,3.02
2018-12-19T12:28:17.275Z,3.00
2018-12-19T12:30:44.673Z,3.05
2018-12-19T12:33:12.074Z,3.13
2018-12-19T12:35:39.886Z,3.14
2018-12-19T12:38:07.265Z,3.21
2018-12-19T12:40:34.739Z,3.19
2018-12-19T12:43:02.125Z,3.12
2018-12-19T12:45:29.509Z,3.17
2018-12-19T12:47:56.899Z,3.15
2018-12-19T12:50:24.314Z,3.23
2018-12-19T12:52:51.698Z,3.26
2018-12-19T12:55:19.192Z,3.26
2018-12-19T12:57:46.588Z,3.25
2018-12-19T13:00:13.992Z,3.24
2018-12-19T13:02:41.398Z,3.32
2018-12-19T13:05:08.863Z,3.29
2018-12-19T13:07:36.244Z,3.27
2018-12-19T13:10:05.838Z,3.28
2018-12-19T13:12:33.230Z,3.30
2018-12-19T13:15:00.619Z,3.31
2018-12-19T13:17:28.013Z,3.40
2018-12-19T13:19:55.439Z,3.50
2018-12-19T13:22:22.828Z,3.41
2018-12-19T13:24:50.213Z,3.41
2018-12-19T13:27:17.704Z,3.47
2018-12-19T13:29:45.156Z,3.47
2018-12-19T13:32:13.056Z,3.56
2018-12-19T13:34:40.446Z,3.53
2018-12-19T13:37:07.830Z,3.55
2018-12-19T13:39:35.239Z,3.61
2018-12-19T13:42:05.503Z,3.64
2018-12-19T13:44:32.005Z,3.66
2018-12-19T13:46:59.399Z,3.67
2018-12-19T13:49:26.785Z,3.70
2018-12-19T13:51:54.185Z,3.69
2018-12-19T13:54:21.595Z,3.73
2018-12-19T13:56:48.999Z,3.73
2018-12-19T13:59:16.383Z,3.73
2018-12-19T14:01:43.855Z,3.67
2018-12-19T14:04:11.265Z,3.63
2018-12-19T14:06:38.658Z,3.67
2018-12-19T14:09:06.452Z,3.65
2018-12-19T14:11:33.837Z,3.63
2018-12-19T14:14:01.230Z,3.68
2018-12-19T14:16:28.708Z,3.75
2018-12-19T14:18:56.089Z,3.84
2018-12-19T14:21:23.465Z,3.82
2018-12-19T14:23:50.843Z,3.87
2018-12-19T14:26:18.238Z,3.90
2018-12-19T14:28:45.654Z,3.80
2018-12-19T14:31:13.041Z,3.86
2018-12-19T14:33:41.267Z,3.84
2018-12-19T14:36:08.654Z,3.88
2018-12-19T14:38:36.042Z,3.70
2018-12-19T14:41:03.458Z,3.80
2018-12-19T14:43:30.842Z,3.75
2018-12-19T14:45:59.549Z,3.79
2018-12-19T14:48:27.110Z,3.72
2018-12-19T14:50:54.593Z,3.77
2018-12-19T14:53:22.001Z,3.85
2018-12-19T14:55:49.408Z,3.84
2018-12-19T14:58:16.808Z,3.78
2018-12-19T15:00:44.188Z,3.78
2018-12-19T15:03:11.589Z,3.76
2018-12-19T15:05:38.973Z,3.77
2018-12-19T15:08:06.375Z,3.84
2018-12-19T15:10:33.861Z,3.88
2018-12-19T15:13:01.245Z,3.93
2018-12-19T15:15:28.631Z,3.95
2018-12-19T15:17:56.468Z,3.91
2018-12-19T15:20:23.854Z,3.86
2018-12-19T15:22:51.255Z,3.94
2018-12-19T15:25:18.644Z,3.95
2018-12-19T15:27:46.037Z,3.97
2018-12-19T15:30:13.527Z,4.01
2018-12-19T15:32:40.897Z,4.06
2018-12-19T15:35:08.298Z,4.05
2018-12-19T15:37:35.684Z,4.03
2018-12-19T15:40:03.166Z,4.02
2018-12-19T15:42:32.570Z,4.06
2018-12-19T15:44:59.971Z,4.14
2018-12-19T15:47:27.426Z,4.16
2018-12-19T15:49:54.811Z,4.17
2018-12-19T15:52:22.181Z,4.12
2018-12-19T15:54:49.567Z,4.06
2018-12-19T15:57:16.954Z,4.15
2018-12-19T15:59:44.354Z,4.11
2018-12-19T16:02:11.771Z,4.14
2018-12-19T16:04:39.161Z,4.10
2018-12-19T16:07:06.574Z,3.96
2018-12-19T16:09:33.967Z,3.93
2018-12-19T16:12:01.362Z,4.02
2018-12-19T16:14:28.750Z,4.08
2018-12-19T16:16:56.137Z,4.12
2018-12-19T16:19:23.550Z,4.07
2018-12-19T16:21:50.940Z,4.10
2018-12-19T16:24:18.326Z,4.11
2018-12-19T16:26:45.713Z,4.05
2018-12-19T16:29:13.095Z,4.14
2018-12-19T16:31:40.473Z,4.16
2018-12-19T16:34:07.958Z,4.18
2018-12-19T16:36:35.339Z,4.27
2018-12-19T16:39:02.734Z,4.14
2018-12-19T16:41:30.122Z,4.12
2018-12-19T16:43:57.526Z,4.14
2018-12-19T16:46:24.933Z,4.11
2018-12-19T16:48:52.321Z,4.18
2018-12-19T16:51:19.707Z,4.21
2018-12-19T16:53:47.206Z,4.22
2018-12-19T16:56:14.589Z,4.20
2018-12-19T16:58:41.987Z,4.18
2018-12-19T17:01:09.385Z,4.17
2018-12-19T17:03:36.844Z,4.26
2018-12-19T17:06:04.236Z,4.28
2018-12-19T17:08:31.651Z,4.32
2018-12-19T17:10:59.034Z,4.36
2018-12-19T17:13:26.485Z,4.32
2018-12-19T17:15:53.867Z,4.27
2018-12-19T17:18:21.267Z,4.32
2018-12-19T17:20:48.653Z,4.40
2018-12-19T17:23:16.057Z,4.37
2018-12-19T17:25:43.450Z,4.31
2018-12-19T17:28:10.883Z,4.32
2018-12-19T17:30:38.271Z,4.37
2018-12-19T17:33:05.649Z,4.40
2018-12-19T17:35:33.034Z,4.36
2018-12-19T17:38:00.421Z,4.29
2018-12-19T17:40:27.805Z,4.31
2018-12-19T17:42:59.425Z,4.35
2018-12-19T17:45:24.580Z,4.44
2018-12-19T17:47:51.965Z,4.39
2018-12-19T17:50:19.900Z,4.43
2018-12-19T17:52:47.296Z,4.44
2018-12-19T17:55:14.762Z,4.40
2018-12-19T17:57:42.158Z,4.47
2018-12-19T18:00:11.380Z,4.35
2018-12-19T18:02:38.838Z,4.36
2018-12-19T18:05:06.317Z,4.37
2018-12-19T18:07:33.808Z,4.46
2018-12-19T18:10:01.195Z,4.50
2018-12-19T18:12:28.586Z,4.45
2018-12-19T18:14:55.962Z,4.43
2018-12-19T18:17:23.373Z,4.43
2018-12-19T18:19:50.754Z,4.24
2018-12-19T18:22:18.133Z,4.25
2018-12-19T18:24:45.506Z,4.24
2018-12-19T18:27:12.903Z,4.26
2018-12-19T18:29:40.292Z,4.27
2018-12-19T18:32:07.797Z,4.26
2018-12-19T18:34:35.193Z,4.25
2018-12-19T18:37:02.587Z,4.23
2018-12-19T18:39:29.973Z,4.14
2018-12-19T18:41:57.404Z,4.19
2018-12-19T18:44:24.770Z,4.31
2018-12-19T18:46:52.157Z,4.43
2018-12-19T18:49:19.568Z,4.36
2018-12-19T18:51:46.955Z,4.31
2018-12-19T18:54:14.362Z,4.33
2018-12-19T18:56:41.765Z,4.32
2018-12-19T18:59:09.158Z,4.26
2018-12-19T19:01:36.719Z,4.29
2018-12-19T19:04:04.243Z,4.36
2018-12-19T19:06:31.898Z,4.37
2018-12-19T19:09:00.013Z,4.41
2018-12-19T19:11:27.636Z,4.42
2018-12-19T19:13:55.245Z,4.46
2018-12-19T19:16:22.779Z,4.48
2018-12-19T19:18:50.188Z,4.44
2018-12-19T19:21:17.569Z,4.46
2018-12-19T19:23:45.000Z,4.29
2018-12-19T19:26:12.390Z,4.35
2018-12-19T19:28:39.778Z,4.39
2018-12-19T19:31:07.189Z,4.45
2018-12-19T19:33:34.586Z,4.46
2018-12-19T19:36:01.986Z,4.54
2018-12-19T19:38:29.427Z,4.40
2018-12-19T19:40:56.813Z,4.45
2018-12-19T19:43:26.726Z,4.44
2018-12-19T19:45:53.615Z,4.48
2018-12-19T19:48:21.013Z,4.46
2018-12-19T19:50:48.417Z,4.41
2018-12-19T19:53:15.810Z,4.54
2018-12-19T19:55:43.226Z,4.52
2018-12-19T19:58:10.670Z,4.54
2018-12-19T20:00:38.189Z,4.31
2018-12-19T20:03:05.663Z,4.29
2018-12-19T20:05:33.768Z,4.30
2018-12-19T20:08:01.155Z,4.34
2018-12-19T20:10:28.546Z,4.32
2018-12-19T20:12:55.934Z,4.33
2018-12-19T20:15:23.337Z,4.34
2018-12-19T20:17:51.747Z,4.40
2018-12-19T20:20:19.147Z,4.40
2018-12-19T20:22:46.633Z,4.51
2018-12-19T20:25:14.048Z,4.37
2018-12-19T20:27:41.781Z,4.39
2018-12-19T20:30:09.970Z,4.42
2018-12-19T20:32:37.386Z,4.43
2018-12-19T20:35:04.973Z,4.39
2018-12-19T20:37:32.369Z,4.38
2018-12-19T20:40:00.699Z,4.40
2018-12-19T20:42:28.267Z,4.45
2018-12-19T20:44:56.367Z,4.42
2018-12-19T20:47:24.630Z,4.49
2018-12-19T20:49:52.033Z,4.51
2018-12-19T20:52:19.424Z,4.49
2018-12-19T20:54:46.809Z,4.51
2018-12-19T20:57:15.097Z,4.46
2018-12-19T20:59:42.479Z,4.51
2018-12-19T21:02:09.976Z,4.47
2018-12-19T21:04:37.366Z,4.57
2018-12-19T21:07:04.762Z,4.54
2018-12-19T21:09:32.151Z,4.48
2018-12-19T21:11:59.548Z,4.48
2018-12-19T21:14:26.949Z,4.40
2018-12-19T21:17:00.753Z,4.41
2018-12-19T21:19:28.149Z,4.37
2018-12-19T21:21:55.534Z,4.41
2018-12-19T21:24:22.959Z,4.47
2018-12-19T21:26:50.433Z,4.42
2018-12-19T21:29:17.845Z,4.39
2018-12-19T21:31:45.338Z,4.46
2018-12-19T21:34:12.733Z,4.39
2018-12-19T21:36:40.110Z,4.41
2018-12-19T21:39:08.906Z,4.47
2018-12-19T21:41:36.290Z,4.56
2018-12-19T21:44:03.702Z,4.64
2018-12-19T21:46:31.170Z,4.62
2018-12-19T21:48:58.637Z,4.57
2018-12-19T21:51:26.059Z,4.61
2018-12-19T21:53:53.567Z,4.55
2018-12-19T21:56:21.021Z,4.55
2018-12-19T21:58:48.502Z,4.56
2018-12-19T22:01:15.890Z,4.61
2018-12-19T22:03:43.308Z,4.60
2018-12-19T22:06:10.776Z,4.60
2018-12-19T22:08:38.235Z,4.62
2018-12-19T22:11:05.652Z,4.56
2018-12-19T22:13:33.120Z,4.60
2018-12-19T22:16:00.593Z,4.60
2018-12-19T22:18:33.490Z,4.55
2018-12-19T22:21:00.874Z,4.64
2018-12-19T22:23:28.365Z,4.67
2018-12-19T22:25:55.810Z,4.64
2018-12-19T22:28:23.205Z,4.61
2018-12-19T22:30:50.671Z,4.60
2018-12-19T22:33:18.651Z,4.54
2018-12-19T22:35:46.214Z,4.61
2018-12-19T22:38:13.608Z,4.63
2018-12-19T22:40:41.195Z,4.63
2018-12-19T22:43:08.789Z,4.65
2018-12-19T22:45:36.284Z,4.60
2018-12-19T22:48:03.735Z,4.58
2018-12-19T22:50:31.247Z,4.60
2018-12-19T22:52:59.777Z,4.53
2018-12-19T22:55:27.300Z,4.57
2018-12-19T22:57:54.777Z,4.56
2018-12-19T23:00:22.173Z,4.53
2018-12-19T23:02:55.311Z,4.49
2018-12-19T23:05:28.425Z,4.54
2018-12-19T23:07:55.988Z,4.63
2018-12-19T23:10:23.547Z,4.59
2018-12-19T23:12:50.943Z,4.57
2018-12-19T23:15:20.063Z,4.60
2018-12-19T23:17:47.598Z,4.58
2018-12-19T23:20:15.488Z,4.61
2018-12-19T23:22:42.942Z,4.58
2018-12-19T23:25:10.542Z,4.63
2018-12-19T23:27:38.027Z,4.54
2018-12-19T23:30:06.391Z,4.44
2018-12-19T23:32:33.786Z,4.38
2018-12-19T23:35:01.339Z,4.34
2018-12-19T23:37:28.790Z,4.32
2018-12-19T23:39:56.205Z,4.40
2018-12-19T23:42:23.652Z,4.39
2018-12-19T23:44:51.126Z,4.36
2018-12-19T23:47:18.518Z,4.21
2018-12-19T23:49:46.045Z,4.31
2018-12-19T23:52:13.501Z,4.37
2018-12-19T23:54:40.963Z,4.41
2018-12-19T23:57:08.343Z,4.42
2018-12-19T23:59:35.874Z,4.26
